sensor_id;sensor_type;location;lat;lon;timestamp;temperature;humidity
79467;SHT30;68933;49.726;9.226;2023-08-30T00:01:57;15.3;79
79467;SHT30;68933;49.726;9.226;2023-08-30T00:04:10;15.3;79
79467;SHT30;68933;49.726;9.226;2023-08-30T00:06:23;15.3;79
79467;SHT30;68933;49.726;9.226;2023-08-30T00:08:36;15.4;79
79467;SHT30;68933;49.726;9.226;2023-08-30T00:10:49;15.4;79
79467;SHT30;68933;49.726;9.226;2023-08-30T00:13:02;15.4;79
79467;SHT30;68933;49.726;9.226;2023-08-30T00:15:15;15.4;79
79467;SHT30;68933;49.726;9.226;2023-08-30T00:17:28;15.4;79
79467;SHT30;68933;49.726;9.226;2023-08-30T00:19:41;15.3;79
79467;SHT30;68933;49.726;9.226;2023-08-30T00:21:54;15.3;79
79467;SHT30;68933;49.726;9.226;2023-08-30T00:24:07;15.3;79
79467;SHT30;68933;49.726;9.226;2023-08-30T00:26:20;15.3;79
79467;SHT30;68933;49.726;9.226;2023-08-30T00:28:33;15.3;79
79467;SHT30;68933;49.726;9.226;2023-08-30T00:30:47;15.4;79
79467;SHT30;68933;49.726;9.226;2023-08-30T00:32:59;15.4;79
79467;SHT30;68933;49.726;9.226;2023-08-30T00:35:12;15.4;79
79467;SHT30;68933;49.726;9.226;2023-08-30T00:37:25;15.4;79
79467;SHT30;68933;49.726;9.226;2023-08-30T00:39:38;15.4;79
79467;SHT30;68933;49.726;9.226;2023-08-30T00:41:51;15.4;79
79467;SHT30;68933;49.726;9.226;2023-08-30T00:44:04;15.4;79
79467;SHT30;68933;49.726;9.226;2023-08-30T00:46:17;15.4;79
79467;SHT30;68933;49.726;9.226;2023-08-30T00:48:30;15.4;79
79467;SHT30;68933;49.726;9.226;2023-08-30T00:50:43;15.4;79
79467;SHT30;68933;49.726;9.226;2023-08-30T00:52:56;15.3;77
79467;SHT30;68933;49.726;9.226;2023-08-30T00:55:09;15.3;77
79467;SHT30;68933;49.726;9.226;2023-08-30T00:57:22;15.3;77
79467;SHT30;68933;49.726;9.226;2023-08-30T00:59:35;15.3;77
79467;SHT30;68933;49.726;9.226;2023-08-30T01:01:48;15.2;77
79467;SHT30;68933;49.726;9.226;2023-08-30T01:04:01;15.2;77
79467;SHT30;68933;49.726;9.226;2023-08-30T01:06:14;15.2;77
79467;SHT30;68933;49.726;9.226;2023-08-30T01:08:27;15.2;77
79467;SHT30;68933;49.726;9.226;2023-08-30T01:10:44;15.2;77
79467;SHT30;68933;49.726;9.226;2023-08-30T01:12:54;15.1;77
79467;SHT30;68933;49.726;9.226;2023-08-30T01:17:19;15.1;77
79467;SHT30;68933;49.726;9.226;2023-08-30T01:19:37;15.1;77
79467;SHT30;68933;49.726;9.226;2023-08-30T01:21:47;15.1;77
79467;SHT30;68933;49.726;9.226;2023-08-30T01:23:59;15;77
79467;SHT30;68933;49.726;9.226;2023-08-30T01:26:12;15;77
79467;SHT30;68933;49.726;9.226;2023-08-30T01:28:24;15;77
79467;SHT30;68933;49.726;9.226;2023-08-30T01:30:37;15;77
79467;SHT30;68933;49.726;9.226;2023-08-30T01:32:50;14.9;77
79467;SHT30;68933;49.726;9.226;2023-08-30T01:35:03;14.9;77
79467;SHT30;68933;49.726;9.226;2023-08-30T01:37:16;14.9;77
79467;SHT30;68933;49.726;9.226;2023-08-30T01:39:29;14.9;77
79467;SHT30;68933;49.726;9.226;2023-08-30T01:41:42;14.9;77
79467;SHT30;68933;49.726;9.226;2023-08-30T01:43:55;14.7;77
79467;SHT30;68933;49.726;9.226;2023-08-30T01:46:08;14.7;77
79467;SHT30;68933;49.726;9.226;2023-08-30T01:48:21;14.7;77
79467;SHT30;68933;49.726;9.226;2023-08-30T01:50:34;14.7;77
79467;SHT30;68933;49.726;9.226;2023-08-30T01:52:47;14.7;77
79467;SHT30;68933;49.726;9.226;2023-08-30T01:55:00;14.7;77
79467;SHT30;68933;49.726;9.226;2023-08-30T01:57:13;14.7;77
79467;SHT30;68933;49.726;9.226;2023-08-30T01:59:26;14.7;77
79467;SHT30;68933;49.726;9.226;2023-08-30T02:01:39;14.7;77
79467;SHT30;68933;49.726;9.226;2023-08-30T02:03:52;14.7;78
79467;SHT30;68933;49.726;9.226;2023-08-30T02:06:06;14.7;78
79467;SHT30;68933;49.726;9.226;2023-08-30T02:08:18;14.7;78
79467;SHT30;68933;49.726;9.226;2023-08-30T02:10:31;14.7;78
79467;SHT30;68933;49.726;9.226;2023-08-30T02:12:46;14.8;78
79467;SHT30;68933;49.726;9.226;2023-08-30T02:14:57;14.8;78
79467;SHT30;68933;49.726;9.226;2023-08-30T02:19:23;14.7;78
79467;SHT30;68933;49.726;9.226;2023-08-30T02:21:36;14.7;78
79467;SHT30;68933;49.726;9.226;2023-08-30T02:23:49;14.7;78
79467;SHT30;68933;49.726;9.226;2023-08-30T02:26:02;14.7;78
79467;SHT30;68933;49.726;9.226;2023-08-30T02:28:15;14.7;78
79467;SHT30;68933;49.726;9.226;2023-08-30T02:30:28;14.7;78
79467;SHT30;68933;49.726;9.226;2023-08-30T02:32:41;14.7;78
79467;SHT30;68933;49.726;9.226;2023-08-30T02:34:55;14.7;78
79467;SHT30;68933;49.726;9.226;2023-08-30T02:37:07;14.7;78
79467;SHT30;68933;49.726;9.226;2023-08-30T02:39:20;14.7;78
79467;SHT30;68933;49.726;9.226;2023-08-30T02:41:33;14.7;78
79467;SHT30;68933;49.726;9.226;2023-08-30T02:43:46;14.6;79
79467;SHT30;68933;49.726;9.226;2023-08-30T02:45:59;14.6;79
79467;SHT30;68933;49.726;9.226;2023-08-30T02:48:12;14.6;79
79467;SHT30;68933;49.726;9.226;2023-08-30T02:50:25;14.6;79
79467;SHT30;68933;49.726;9.226;2023-08-30T02:52:38;14.5;79
79467;SHT30;68933;49.726;9.226;2023-08-30T02:54:51;14.5;79
79467;SHT30;68933;49.726;9.226;2023-08-30T02:57:04;14.5;81
79467;SHT30;68933;49.726;9.226;2023-08-30T02:59:17;14.5;81
79467;SHT30;68933;49.726;9.226;2023-08-30T03:01:30;14.5;81
79467;SHT30;68933;49.726;9.226;2023-08-30T03:03:43;14.5;81
79467;SHT30;68933;49.726;9.226;2023-08-30T03:05:56;14.5;81
79467;SHT30;68933;49.726;9.226;2023-08-30T03:08:09;14.5;81
79467;SHT30;68933;49.726;9.226;2023-08-30T03:10:22;14.5;81
79467;SHT30;68933;49.726;9.226;2023-08-30T03:12:35;14.4;81
79467;SHT30;68933;49.726;9.226;2023-08-30T03:14:48;14.4;81
79467;SHT30;68933;49.726;9.226;2023-08-30T03:17:01;14.4;81
79467;SHT30;68933;49.726;9.226;2023-08-30T03:19:14;14.4;81
79467;SHT30;68933;49.726;9.226;2023-08-30T03:21:27;14.4;81
79467;SHT30;68933;49.726;9.226;2023-08-30T03:23:40;14.4;81
79467;SHT30;68933;49.726;9.226;2023-08-30T03:25:53;14.4;81
79467;SHT30;68933;49.726;9.226;2023-08-30T03:28:06;14.4;81
79467;SHT30;68933;49.726;9.226;2023-08-30T03:30:19;14.4;81
79467;SHT30;68933;49.726;9.226;2023-08-30T03:32:32;14.4;81
79467;SHT30;68933;49.726;9.226;2023-08-30T03:34:45;14.4;81
79467;SHT30;68933;49.726;9.226;2023-08-30T03:36:58;14.4;81
79467;SHT30;68933;49.726;9.226;2023-08-30T03:39:11;14.4;81
79467;SHT30;68933;49.726;9.226;2023-08-30T03:41:24;14.4;81
79467;SHT30;68933;49.726;9.226;2023-08-30T03:43:37;14.4;81
79467;SHT30;68933;49.726;9.226;2023-08-30T03:45:50;14.5;81
79467;SHT30;68933;49.726;9.226;2023-08-30T03:48:03;14.5;81
79467;SHT30;68933;49.726;9.226;2023-08-30T03:50:16;14.5;81
79467;SHT30;68933;49.726;9.226;2023-08-30T03:52:29;14.5;81
79467;SHT30;68933;49.726;9.226;2023-08-30T03:54:42;14.5;81
79467;SHT30;68933;49.726;9.226;2023-08-30T03:56:55;14.5;81
79467;SHT30;68933;49.726;9.226;2023-08-30T03:59:08;14.5;81
79467;SHT30;68933;49.726;9.226;2023-08-30T04:01:21;14.4;79
79467;SHT30;68933;49.726;9.226;2023-08-30T04:03:34;14.4;79
79467;SHT30;68933;49.726;9.226;2023-08-30T04:05:47;14.4;79
79467;SHT30;68933;49.726;9.226;2023-08-30T04:08:00;14.4;79
79467;SHT30;68933;49.726;9.226;2023-08-30T04:10:13;14.4;81
79467;SHT30;68933;49.726;9.226;2023-08-30T04:12:26;14.4;81
79467;SHT30;68933;49.726;9.226;2023-08-30T04:14:39;14.4;81
79467;SHT30;68933;49.726;9.226;2023-08-30T04:16:52;14.5;81
79467;SHT30;68933;49.726;9.226;2023-08-30T04:19:05;14.5;81
79467;SHT30;68933;49.726;9.226;2023-08-30T04:21:18;14.5;81
79467;SHT30;68933;49.726;9.226;2023-08-30T04:23:31;14.5;81
79467;SHT30;68933;49.726;9.226;2023-08-30T04:25:44;14.5;79
79467;SHT30;68933;49.726;9.226;2023-08-30T04:27:57;14.5;79
79467;SHT30;68933;49.726;9.226;2023-08-30T04:30:10;14.5;79
79467;SHT30;68933;49.726;9.226;2023-08-30T04:32:23;14.5;81
79467;SHT30;68933;49.726;9.226;2023-08-30T04:34:36;14.5;81
79467;SHT30;68933;49.726;9.226;2023-08-30T04:36:49;14.5;81
79467;SHT30;68933;49.726;9.226;2023-08-30T04:39:02;14.5;81
79467;SHT30;68933;49.726;9.226;2023-08-30T04:41:15;14.5;81
79467;SHT30;68933;49.726;9.226;2023-08-30T04:43:28;14.5;81
79467;SHT30;68933;49.726;9.226;2023-08-30T04:45:41;14.5;81
79467;SHT30;68933;49.726;9.226;2023-08-30T04:47:54;14.6;81
79467;SHT30;68933;49.726;9.226;2023-08-30T04:50:07;14.6;81
79467;SHT30;68933;49.726;9.226;2023-08-30T04:52:20;14.6;81
79467;SHT30;68933;49.726;9.226;2023-08-30T04:54:33;14.6;81
79467;SHT30;68933;49.726;9.226;2023-08-30T04:56:46;14.7;81
79467;SHT30;68933;49.726;9.226;2023-08-30T04:58:59;14.7;81
79467;SHT30;68933;49.726;9.226;2023-08-30T05:01:12;14.7;81
79467;SHT30;68933;49.726;9.226;2023-08-30T05:03:25;14.7;81
79467;SHT30;68933;49.726;9.226;2023-08-30T05:05:38;14.7;81
79467;SHT30;68933;49.726;9.226;2023-08-30T05:07:51;14.7;79
79467;SHT30;68933;49.726;9.226;2023-08-30T05:10:04;14.7;79
79467;SHT30;68933;49.726;9.226;2023-08-30T05:12:17;14.7;79
79467;SHT30;68933;49.726;9.226;2023-08-30T05:14:30;14.7;79
79467;SHT30;68933;49.726;9.226;2023-08-30T05:16:43;14.7;79
79467;SHT30;68933;49.726;9.226;2023-08-30T05:18:56;14.7;79
79467;SHT30;68933;49.726;9.226;2023-08-30T05:21:09;14.7;79
79467;SHT30;68933;49.726;9.226;2023-08-30T05:23:22;14.7;79
79467;SHT30;68933;49.726;9.226;2023-08-30T05:25:35;14.7;79
79467;SHT30;68933;49.726;9.226;2023-08-30T05:27:48;14.7;79
79467;SHT30;68933;49.726;9.226;2023-08-30T05:30:01;14.7;79
79467;SHT30;68933;49.726;9.226;2023-08-30T05:32:14;14.7;79
79467;SHT30;68933;49.726;9.226;2023-08-30T05:34:27;14.7;79
79467;SHT30;68933;49.726;9.226;2023-08-30T05:36:40;14.7;79
79467;SHT30;68933;49.726;9.226;2023-08-30T05:38:53;14.7;79
79467;SHT30;68933;49.726;9.226;2023-08-30T05:41:06;14.7;79
79467;SHT30;68933;49.726;9.226;2023-08-30T05:43:19;14.7;79
79467;SHT30;68933;49.726;9.226;2023-08-30T05:45:32;14.8;79
79467;SHT30;68933;49.726;9.226;2023-08-30T05:47:45;14.8;79
79467;SHT30;68933;49.726;9.226;2023-08-30T05:49:58;14.8;79
79467;SHT30;68933;49.726;9.226;2023-08-30T05:52:11;14.9;79
79467;SHT30;68933;49.726;9.226;2023-08-30T05:54:24;14.9;79
79467;SHT30;68933;49.726;9.226;2023-08-30T05:56:37;14.9;79
79467;SHT30;68933;49.726;9.226;2023-08-30T05:58:50;14.9;79
79467;SHT30;68933;49.726;9.226;2023-08-30T06:01:03;14.9;79
79467;SHT30;68933;49.726;9.226;2023-08-30T06:03:16;14.9;79
79467;SHT30;68933;49.726;9.226;2023-08-30T06:05:29;14.9;79
79467;SHT30;68933;49.726;9.226;2023-08-30T06:07:42;14.9;79
79467;SHT30;68933;49.726;9.226;2023-08-30T06:09:55;14.9;79
79467;SHT30;68933;49.726;9.226;2023-08-30T06:12:08;14.9;79
79467;SHT30;68933;49.726;9.226;2023-08-30T06:14:21;14.9;79
79467;SHT30;68933;49.726;9.226;2023-08-30T06:16:34;15;79
79467;SHT30;68933;49.726;9.226;2023-08-30T06:18:47;15;79
79467;SHT30;68933;49.726;9.226;2023-08-30T06:21:00;15;79
79467;SHT30;68933;49.726;9.226;2023-08-30T06:23:13;15.1;79
79467;SHT30;68933;49.726;9.226;2023-08-30T06:25:26;15.1;79
79467;SHT30;68933;49.726;9.226;2023-08-30T06:27:40;15.1;79
79467;SHT30;68933;49.726;9.226;2023-08-30T06:29:52;15.1;79
79467;SHT30;68933;49.726;9.226;2023-08-30T06:32:05;15.1;79
79467;SHT30;68933;49.726;9.226;2023-08-30T06:34:18;15.1;79
79467;SHT30;68933;49.726;9.226;2023-08-30T06:36:31;15.1;79
79467;SHT30;68933;49.726;9.226;2023-08-30T06:38:44;15.3;79
79467;SHT30;68933;49.726;9.226;2023-08-30T06:40:57;15.3;79
79467;SHT30;68933;49.726;9.226;2023-08-30T06:43:10;15.3;79
79467;SHT30;68933;49.726;9.226;2023-08-30T06:45:23;15.4;79
79467;SHT30;68933;49.726;9.226;2023-08-30T06:47:36;15.4;79
79467;SHT30;68933;49.726;9.226;2023-08-30T06:49:49;15.5;79
79467;SHT30;68933;49.726;9.226;2023-08-30T06:52:02;15.5;79
79467;SHT30;68933;49.726;9.226;2023-08-30T06:54:15;15.6;79
79467;SHT30;68933;49.726;9.226;2023-08-30T06:56:28;15.6;79
79467;SHT30;68933;49.726;9.226;2023-08-30T06:58:41;15.6;79
79467;SHT30;68933;49.726;9.226;2023-08-30T07:00:56;15.7;79
79467;SHT30;68933;49.726;9.226;2023-08-30T07:03:07;15.7;79
79467;SHT30;68933;49.726;9.226;2023-08-30T07:05:21;15.9;79
79467;SHT30;68933;49.726;9.226;2023-08-30T07:07:33;15.9;79
79467;SHT30;68933;49.726;9.226;2023-08-30T07:09:46;16;79
79467;SHT30;68933;49.726;9.226;2023-08-30T07:11:59;16;79
79467;SHT30;68933;49.726;9.226;2023-08-30T07:14:12;16;79
79467;SHT30;68933;49.726;9.226;2023-08-30T07:16:25;16;79
79467;SHT30;68933;49.726;9.226;2023-08-30T07:18:38;16;79
79467;SHT30;68933;49.726;9.226;2023-08-30T07:20:51;16.1;79
79467;SHT30;68933;49.726;9.226;2023-08-30T07:23:04;16.1;79
79467;SHT30;68933;49.726;9.226;2023-08-30T07:25:17;16.3;79
79467;SHT30;68933;49.726;9.226;2023-08-30T07:27:30;16.3;79
79467;SHT30;68933;49.726;9.226;2023-08-30T07:29:43;16.3;79
79467;SHT30;68933;49.726;9.226;2023-08-30T07:31:56;16.4;78
79467;SHT30;68933;49.726;9.226;2023-08-30T07:34:09;16.4;78
79467;SHT30;68933;49.726;9.226;2023-08-30T07:36:22;16.6;78
79467;SHT30;68933;49.726;9.226;2023-08-30T07:38:35;16.6;78
79467;SHT30;68933;49.726;9.226;2023-08-30T07:40:48;16.7;78
79467;SHT30;68933;49.726;9.226;2023-08-30T07:43:01;16.7;78
79467;SHT30;68933;49.726;9.226;2023-08-30T07:45:14;16.8;78
79467;SHT30;68933;49.726;9.226;2023-08-30T07:47:27;16.8;78
79467;SHT30;68933;49.726;9.226;2023-08-30T07:49:40;16.8;78
79467;SHT30;68933;49.726;9.226;2023-08-30T07:51:53;17.1;76
79467;SHT30;68933;49.726;9.226;2023-08-30T07:54:06;17.1;76
79467;SHT30;68933;49.726;9.226;2023-08-30T07:56:19;17.2;75
79467;SHT30;68933;49.726;9.226;2023-08-30T07:58:32;17.2;75
79467;SHT30;68933;49.726;9.226;2023-08-30T08:00:45;17.2;75
79467;SHT30;68933;49.726;9.226;2023-08-30T08:02:58;17.2;75
79467;SHT30;68933;49.726;9.226;2023-08-30T08:05:11;17.6;75
79467;SHT30;68933;49.726;9.226;2023-08-30T08:07:24;17.6;75
79467;SHT30;68933;49.726;9.226;2023-08-30T08:09:37;17.6;75
79467;SHT30;68933;49.726;9.226;2023-08-30T08:11:50;17.7;75
79467;SHT30;68933;49.726;9.226;2023-08-30T08:14:03;17.7;75
79467;SHT30;68933;49.726;9.226;2023-08-30T08:16:16;18;74
79467;SHT30;68933;49.726;9.226;2023-08-30T08:18:29;18;74
79467;SHT30;68933;49.726;9.226;2023-08-30T08:20:42;18;74
79467;SHT30;68933;49.726;9.226;2023-08-30T08:22:55;18;74
79467;SHT30;68933;49.726;9.226;2023-08-30T08:25:08;18;74
79467;SHT30;68933;49.726;9.226;2023-08-30T08:27:21;18.4;71
79467;SHT30;68933;49.726;9.226;2023-08-30T08:29:34;18.4;71
79467;SHT30;68933;49.726;9.226;2023-08-30T08:31:47;18.5;71
79467;SHT30;68933;49.726;9.226;2023-08-30T08:34:08;18.5;71
79467;SHT30;68933;49.726;9.226;2023-08-30T08:36:13;18.5;71
79467;SHT30;68933;49.726;9.226;2023-08-30T08:38:26;18.8;71
79467;SHT30;68933;49.726;9.226;2023-08-30T08:40:39;18.8;71
79467;SHT30;68933;49.726;9.226;2023-08-30T08:42:52;19.1;70
79467;SHT30;68933;49.726;9.226;2023-08-30T08:45:05;19.1;70
79467;SHT30;68933;49.726;9.226;2023-08-30T08:47:19;19.2;70
79467;SHT30;68933;49.726;9.226;2023-08-30T08:49:31;19.2;70
79467;SHT30;68933;49.726;9.226;2023-08-30T08:51:44;19.2;70
79467;SHT30;68933;49.726;9.226;2023-08-30T08:53:58;19.5;68
79467;SHT30;68933;49.726;9.226;2023-08-30T08:56:10;19.5;68
79467;SHT30;68933;49.726;9.226;2023-08-30T08:58:23;19.8;68
79467;SHT30;68933;49.726;9.226;2023-08-30T09:00:36;19.8;68
79467;SHT30;68933;49.726;9.226;2023-08-30T09:02:49;20;67
79467;SHT30;68933;49.726;9.226;2023-08-30T09:05:02;20;67
79467;SHT30;68933;49.726;9.226;2023-08-30T09:07:15;20;67
79467;SHT30;68933;49.726;9.226;2023-08-30T09:09:28;20.4;66
79467;SHT30;68933;49.726;9.226;2023-08-30T09:11:41;20.4;66
79467;SHT30;68933;49.726;9.226;2023-08-30T09:13:54;20.7;64
79467;SHT30;68933;49.726;9.226;2023-08-30T09:16:11;20.7;64
79467;SHT30;68933;49.726;9.226;2023-08-30T09:18:20;20.8;64
79467;SHT30;68933;49.726;9.226;2023-08-30T09:20:33;20.8;64
79467;SHT30;68933;49.726;9.226;2023-08-30T09:22:46;21.2;62
79467;SHT30;68933;49.726;9.226;2023-08-30T09:24:59;21.2;62
79467;SHT30;68933;49.726;9.226;2023-08-30T09:27:12;21.2;62
79467;SHT30;68933;49.726;9.226;2023-08-30T09:29:25;21.4;62
79467;SHT30;68933;49.726;9.226;2023-08-30T09:31:38;21.4;62
79467;SHT30;68933;49.726;9.226;2023-08-30T09:33:51;21.5;60
79467;SHT30;68933;49.726;9.226;2023-08-30T09:36:09;21.5;60
79467;SHT30;68933;49.726;9.226;2023-08-30T09:38:17;21.6;60
79467;SHT30;68933;49.726;9.226;2023-08-30T09:40:30;21.6;60
79467;SHT30;68933;49.726;9.226;2023-08-30T09:42:43;21.8;59
79467;SHT30;68933;49.726;9.226;2023-08-30T09:44:56;21.8;59
79467;SHT30;68933;49.726;9.226;2023-08-30T09:47:09;21.8;56
79467;SHT30;68933;49.726;9.226;2023-08-30T09:49:22;21.8;56
79467;SHT30;68933;49.726;9.226;2023-08-30T09:51:35;21.8;56
79467;SHT30;68933;49.726;9.226;2023-08-30T09:53:49;22;55
79467;SHT30;68933;49.726;9.226;2023-08-30T09:56:01;22;55
79467;SHT30;68933;49.726;9.226;2023-08-30T09:58:14;22.2;55
79467;SHT30;68933;49.726;9.226;2023-08-30T10:00:27;22.2;55
79467;SHT30;68933;49.726;9.226;2023-08-30T10:02:41;22.4;54
79467;SHT30;68933;49.726;9.226;2023-08-30T10:04:53;22.4;54
79467;SHT30;68933;49.726;9.226;2023-08-30T10:07:06;22.8;54
79467;SHT30;68933;49.726;9.226;2023-08-30T10:09:19;22.8;54
79467;SHT30;68933;49.726;9.226;2023-08-30T10:11:32;22.8;54
79467;SHT30;68933;49.726;9.226;2023-08-30T10:13:45;22.9;52
79467;SHT30;68933;49.726;9.226;2023-08-30T10:16:00;23;52
79467;SHT30;68933;49.726;9.226;2023-08-30T10:18:11;23;52
79467;SHT30;68933;49.726;9.226;2023-08-30T10:20:24;23;52
79467;SHT30;68933;49.726;9.226;2023-08-30T10:22:37;23.2;51
79467;SHT30;68933;49.726;9.226;2023-08-30T10:24:51;23.2;51
79467;SHT30;68933;49.726;9.226;2023-08-30T10:27:04;23.3;51
79467;SHT30;68933;49.726;9.226;2023-08-30T10:29:16;23.3;51
79467;SHT30;68933;49.726;9.226;2023-08-30T10:31:29;23.4;50
79467;SHT30;68933;49.726;9.226;2023-08-30T10:33:49;23.4;50
79467;SHT30;68933;49.726;9.226;2023-08-30T10:36:02;23.4;50
79467;SHT30;68933;49.726;9.226;2023-08-30T10:38:08;23.3;50
79467;SHT30;68933;49.726;9.226;2023-08-30T10:40:21;23.3;50
79467;SHT30;68933;49.726;9.226;2023-08-30T10:42:34;23.3;48
79467;SHT30;68933;49.726;9.226;2023-08-30T10:44:47;23.3;48
79467;SHT30;68933;49.726;9.226;2023-08-30T10:47:01;23.1;48
79467;SHT30;68933;49.726;9.226;2023-08-30T10:49:13;23.1;48
79467;SHT30;68933;49.726;9.226;2023-08-30T10:51:35;23.1;48
79467;SHT30;68933;49.726;9.226;2023-08-30T10:53:39;23.1;48
79467;SHT30;68933;49.726;9.226;2023-08-30T10:56:09;23.1;48
79467;SHT30;68933;49.726;9.226;2023-08-30T10:58:05;23.1;48
79467;SHT30;68933;49.726;9.226;2023-08-30T11:00:18;23.1;48
79467;SHT30;68933;49.726;9.226;2023-08-30T11:02:31;23.1;48
79467;SHT30;68933;49.726;9.226;2023-08-30T11:04:44;23.1;48
79467;SHT30;68933;49.726;9.226;2023-08-30T11:06:57;23.1;48
79467;SHT30;68933;49.726;9.226;2023-08-30T11:09:11;23.1;48
79467;SHT30;68933;49.726;9.226;2023-08-30T11:11:23;23.1;48
79467;SHT30;68933;49.726;9.226;2023-08-30T11:13:36;23.1;48
79467;SHT30;68933;49.726;9.226;2023-08-30T11:15:50;23.1;48
79467;SHT30;68933;49.726;9.226;2023-08-30T11:18:02;23.1;48
79467;SHT30;68933;49.726;9.226;2023-08-30T11:20:15;23.1;48
79467;SHT30;68933;49.726;9.226;2023-08-30T11:22:28;23.1;48
79467;SHT30;68933;49.726;9.226;2023-08-30T11:24:41;23.1;48
79467;SHT30;68933;49.726;9.226;2023-08-30T11:26:54;23.1;48
79467;SHT30;68933;49.726;9.226;2023-08-30T11:29:07;23.1;48
79467;SHT30;68933;49.726;9.226;2023-08-30T11:31:20;23.1;48
79467;SHT30;68933;49.726;9.226;2023-08-30T11:33:33;22.7;47
79467;SHT30;68933;49.726;9.226;2023-08-30T11:35:47;22.7;47
79467;SHT30;68933;49.726;9.226;2023-08-30T11:37:59;22.7;47
79467;SHT30;68933;49.726;9.226;2023-08-30T11:40:12;22.7;47
79467;SHT30;68933;49.726;9.226;2023-08-30T11:42:25;23.2;47
79467;SHT30;68933;49.726;9.226;2023-08-30T11:44:38;23.2;47
79467;SHT30;68933;49.726;9.226;2023-08-30T11:46:57;23.7;47
79467;SHT30;68933;49.726;9.226;2023-08-30T11:49:04;23.7;47
79467;SHT30;68933;49.726;9.226;2023-08-30T11:51:17;23.7;47
79467;SHT30;68933;49.726;9.226;2023-08-30T11:53:30;23.7;47
79467;SHT30;68933;49.726;9.226;2023-08-30T11:55:43;23.7;47
79467;SHT30;68933;49.726;9.226;2023-08-30T11:57:56;23.7;47
79467;SHT30;68933;49.726;9.226;2023-08-30T12:00:09;24.5;44
79467;SHT30;68933;49.726;9.226;2023-08-30T12:02:22;24.5;44
79467;SHT30;68933;49.726;9.226;2023-08-30T12:04:39;24.5;44
79467;SHT30;68933;49.726;9.226;2023-08-30T12:06:51;24.5;44
79467;SHT30;68933;49.726;9.226;2023-08-30T12:09:01;24.5;44
79467;SHT30;68933;49.726;9.226;2023-08-30T12:11:17;24.5;44
79467;SHT30;68933;49.726;9.226;2023-08-30T12:13:28;24.5;44
79467;SHT30;68933;49.726;9.226;2023-08-30T12:15:40;24.5;44
79467;SHT30;68933;49.726;9.226;2023-08-30T12:17:53;25.6;42
79467;SHT30;68933;49.726;9.226;2023-08-30T12:20:14;25.6;42
79467;SHT30;68933;49.726;9.226;2023-08-30T12:22:19;25.5;42
79467;SHT30;68933;49.726;9.226;2023-08-30T12:24:40;25.5;42
79467;SHT30;68933;49.726;9.226;2023-08-30T12:26:45;25.7;43
79467;SHT30;68933;49.726;9.226;2023-08-30T12:28:58;25.7;43
79467;SHT30;68933;49.726;9.226;2023-08-30T12:31:11;25.7;43
79467;SHT30;68933;49.726;9.226;2023-08-30T12:33:24;25.9;40
79467;SHT30;68933;49.726;9.226;2023-08-30T12:35:37;25.9;40
79467;SHT30;68933;49.726;9.226;2023-08-30T12:37:50;25.8;40
79467;SHT30;68933;49.726;9.226;2023-08-30T12:40:03;25.8;40
79467;SHT30;68933;49.726;9.226;2023-08-30T12:42:16;25.8;40
79467;SHT30;68933;49.726;9.226;2023-08-30T12:44:29;25.8;40
79467;SHT30;68933;49.726;9.226;2023-08-30T12:46:42;25.8;40
79467;SHT30;68933;49.726;9.226;2023-08-30T12:48:55;25.5;41
79467;SHT30;68933;49.726;9.226;2023-08-30T12:51:08;25.5;41
79467;SHT30;68933;49.726;9.226;2023-08-30T12:53:21;25.6;42
79467;SHT30;68933;49.726;9.226;2023-08-30T12:55:34;25.6;42
79467;SHT30;68933;49.726;9.226;2023-08-30T12:57:47;25.9;40
79467;SHT30;68933;49.726;9.226;2023-08-30T13:00:00;25.9;40
79467;SHT30;68933;49.726;9.226;2023-08-30T13:02:13;26.1;40
79467;SHT30;68933;49.726;9.226;2023-08-30T13:04:26;26.1;40
79467;SHT30;68933;49.726;9.226;2023-08-30T13:06:39;26.1;40
79467;SHT30;68933;49.726;9.226;2023-08-30T13:08:52;26.3;40
79467;SHT30;68933;49.726;9.226;2023-08-30T13:11:05;26.3;40
79467;SHT30;68933;49.726;9.226;2023-08-30T13:13:18;26.5;39
79467;SHT30;68933;49.726;9.226;2023-08-30T13:15:31;26.5;39
79467;SHT30;68933;49.726;9.226;2023-08-30T13:17:44;26.6;40
79467;SHT30;68933;49.726;9.226;2023-08-30T13:19:57;26.6;40
79467;SHT30;68933;49.726;9.226;2023-08-30T13:22:10;26.9;38
79467;SHT30;68933;49.726;9.226;2023-08-30T13:24:23;26.9;38
79467;SHT30;68933;49.726;9.226;2023-08-30T13:26:36;27;38
79467;SHT30;68933;49.726;9.226;2023-08-30T13:28:49;27;38
79467;SHT30;68933;49.726;9.226;2023-08-30T13:31:02;27.1;37
79467;SHT30;68933;49.726;9.226;2023-08-30T13:33:15;27.1;37
79467;SHT30;68933;49.726;9.226;2023-08-30T13:35:28;27.1;37
79467;SHT30;68933;49.726;9.226;2023-08-30T13:37:41;27.4;38
79467;SHT30;68933;49.726;9.226;2023-08-30T13:39:54;27.4;38
79467;SHT30;68933;49.726;9.226;2023-08-30T13:42:07;27.6;37
79467;SHT30;68933;49.726;9.226;2023-08-30T13:44:20;27.6;37
79467;SHT30;68933;49.726;9.226;2023-08-30T13:46:33;27.6;37
79467;SHT30;68933;49.726;9.226;2023-08-30T13:48:46;27.5;35
79467;SHT30;68933;49.726;9.226;2023-08-30T13:50:59;27.5;35
79467;SHT30;68933;49.726;9.226;2023-08-30T13:53:12;27;35
79467;SHT30;68933;49.726;9.226;2023-08-30T13:55:25;27;35
79467;SHT30;68933;49.726;9.226;2023-08-30T13:57:38;27;35
79467;SHT30;68933;49.726;9.226;2023-08-30T13:59:51;27;37
79467;SHT30;68933;49.726;9.226;2023-08-30T14:02:04;27;37
79467;SHT30;68933;49.726;9.226;2023-08-30T14:04:17;26.7;37
79467;SHT30;68933;49.726;9.226;2023-08-30T14:06:30;26.7;37
79467;SHT30;68933;49.726;9.226;2023-08-30T14:08:43;26.3;37
79467;SHT30;68933;49.726;9.226;2023-08-30T14:10:56;26.3;37
79467;SHT30;68933;49.726;9.226;2023-08-30T14:13:09;26.3;37
79467;SHT30;68933;49.726;9.226;2023-08-30T14:15:22;25.8;38
79467;SHT30;68933;49.726;9.226;2023-08-30T14:17:35;25.8;38
79467;SHT30;68933;49.726;9.226;2023-08-30T14:19:48;25.4;39
79467;SHT30;68933;49.726;9.226;2023-08-30T14:22:01;25.4;39
79467;SHT30;68933;49.726;9.226;2023-08-30T14:24:14;24.9;41
79467;SHT30;68933;49.726;9.226;2023-08-30T14:26:27;24.9;41
79467;SHT30;68933;49.726;9.226;2023-08-30T14:28:40;24.9;41
79467;SHT30;68933;49.726;9.226;2023-08-30T14:30:53;24.5;44
79467;SHT30;68933;49.726;9.226;2023-08-30T14:33:06;24.5;44
79467;SHT30;68933;49.726;9.226;2023-08-30T14:35:19;23.8;45
79467;SHT30;68933;49.726;9.226;2023-08-30T14:37:32;23.8;45
79467;SHT30;68933;49.726;9.226;2023-08-30T14:39:45;23.8;45
79467;SHT30;68933;49.726;9.226;2023-08-30T14:41:58;23.2;45
79467;SHT30;68933;49.726;9.226;2023-08-30T14:44:11;23.2;45
79467;SHT30;68933;49.726;9.226;2023-08-30T14:46:24;22.9;47
79467;SHT30;68933;49.726;9.226;2023-08-30T14:48:37;22.9;47
79467;SHT30;68933;49.726;9.226;2023-08-30T14:50:50;22.8;47
79467;SHT30;68933;49.726;9.226;2023-08-30T14:53:03;22.8;47
79467;SHT30;68933;49.726;9.226;2023-08-30T14:55:16;22.8;47
79467;SHT30;68933;49.726;9.226;2023-08-30T14:57:29;22.7;47
79467;SHT30;68933;49.726;9.226;2023-08-30T14:59:42;22.7;47
79467;SHT30;68933;49.726;9.226;2023-08-30T15:01:55;22.7;47
79467;SHT30;68933;49.726;9.226;2023-08-30T15:04:08;22.7;47